Time;durP1;ratioP1;P1;durP2;ratioP2;P2;SDS_P1;SDS_P2;PMS_P1;PMS_P2;Temp;Humidity;BMP_temperature;BMP_pressure;BME280_temperature;BME280_humidity;BME280_pressure;Samples;Min_cycle;Max_cycle;Signal;HPM_P1;HPM_P2
2021/01/20 00:01:22;;;;;;;0.35;0.35;;;9.70;99.90;;;;;;6189841;23;20023;-92
2021/01/20 00:03:48;;;;;;;0.30;0.30;;;9.80;99.90;;;;;;6190080;23;20497;-93
2021/01/20 00:06:13;;;;;;;0.52;0.52;;;9.80;99.90;;;;;;6190899;23;20047;-92
2021/01/20 00:08:39;;;;;;;0.55;0.50;;;9.80;99.90;;;;;;6190334;23;20013;-92
2021/01/20 00:11:05;;;;;;;2.25;0.68;;;9.80;99.90;;;;;;6190699;23;20028;-91
2021/01/20 00:13:31;;;;;;;0.55;0.50;;;9.80;99.90;;;;;;6191554;23;20333;-92
2021/01/20 00:15:56;;;;;;;0.80;0.80;;;9.80;99.90;;;;;;6193244;23;20374;-92
2021/01/20 00:18:22;;;;;;;0.40;0.40;;;9.80;99.90;;;;;;6195171;23;20012;-92
2021/01/20 00:20:58;;;;;;;0.68;0.52;;;9.80;99.90;;;;;;6193664;23;20000;-92
2021/01/20 00:24:03;;;;;;;0.50;0.50;;;9.90;99.90;;;;;;6192353;23;20012;-91
2021/01/20 00:26:33;;;;;;;0.50;0.50;;;9.90;99.90;;;;;;6188966;23;20017;-90
2021/01/20 00:28:59;;;;;;;0.52;0.52;;;9.90;99.90;;;;;;6195776;23;20008;-91
2021/01/20 00:31:25;;;;;;;1.10;0.65;;;9.90;99.90;;;;;;6194385;23;20036;-92
2021/01/20 00:33:51;;;;;;;0.88;0.52;;;9.90;99.90;;;;;;6193934;23;20503;-93
2021/01/20 00:36:17;;;;;;;0.47;0.45;;;9.90;99.90;;;;;;6190102;23;20035;-90
2021/01/20 00:38:42;;;;;;;0.88;0.50;;;9.90;99.90;;;;;;6189660;23;20008;-91
2021/01/20 00:41:08;;;;;;;0.60;0.50;;;9.90;99.90;;;;;;6189190;23;20527;-91
2021/01/20 00:43:34;;;;;;;0.50;0.40;;;9.90;99.90;;;;;;6188922;23;20058;-90
2021/01/20 00:45:59;;;;;;;0.30;0.30;;;9.90;99.90;;;;;;6188532;23;20061;-90
2021/01/20 00:48:25;;;;;;;1.48;0.40;;;9.90;99.90;;;;;;6188627;23;20009;-92
2021/01/20 00:50:55;;;;;;;0.40;0.40;;;9.90;99.90;;;;;;6189569;23;20005;-92
2021/01/20 00:53:21;;;;;;;0.52;0.47;;;10.00;99.90;;;;;;6189231;23;20269;-90
2021/01/20 00:55:47;;;;;;;1.90;0.47;;;10.00;99.90;;;;;;6189133;23;20009;-92
2021/01/20 00:58:13;;;;;;;0.30;0.30;;;10.00;99.90;;;;;;6188958;23;20383;-93
2021/01/20 01:00:39;;;;;;;0.50;0.50;;;10.00;99.90;;;;;;6189157;23;20058;-92
2021/01/20 01:03:05;;;;;;;0.50;0.50;;;10.00;99.90;;;;;;6189005;23;20008;-91
2021/01/20 01:05:30;;;;;;;0.30;0.30;;;10.10;99.90;;;;;;6188356;23;20004;-92
2021/01/20 01:07:56;;;;;;;0.68;0.50;;;10.00;99.90;;;;;;6188277;23;20467;-93
2021/01/20 01:10:23;;;;;;;0.50;0.50;;;10.00;99.90;;;;;;6188056;23;20016;-93
2021/01/20 01:12:49;;;;;;;0.35;0.35;;;10.00;99.90;;;;;;6188353;23;20001;-91
2021/01/20 01:15:14;;;;;;;0.30;0.30;;;10.10;99.90;;;;;;6188795;23;20519;-92
2021/01/20 01:17:40;;;;;;;0.30;0.30;;;10.00;99.90;;;;;;6187557;23;20009;-92
2021/01/20 01:20:06;;;;;;;0.75;0.30;;;10.00;99.90;;;;;;6188637;23;20012;-93
2021/01/20 01:22:32;;;;;;;0.30;0.30;;;10.00;99.90;;;;;;6188746;23;20005;-92
2021/01/20 01:24:58;;;;;;;0.57;0.40;;;10.00;99.90;;;;;;6189132;23;20019;-92
2021/01/20 01:27:23;;;;;;;0.35;0.30;;;10.00;99.90;;;;;;6189101;23;20099;-91
2021/01/20 01:29:49;;;;;;;0.32;0.32;;;10.00;99.90;;;;;;6189175;23;20017;-92
2021/01/20 01:32:15;;;;;;;0.30;0.30;;;9.90;99.90;;;;;;6189325;23;20011;-92
2021/01/20 01:34:40;;;;;;;0.75;0.40;;;10.00;99.90;;;;;;6189614;23;20001;-92
2021/01/20 01:37:06;;;;;;;0.15;0.15;;;9.90;99.90;;;;;;6189692;23;20009;-92
2021/01/20 01:39:34;;;;;;;0.30;0.30;;;9.90;99.90;;;;;;6189447;23;20091;-91
2021/01/20 01:42:04;;;;;;;0.15;0.15;;;9.90;99.90;;;;;;6189318;23;20008;-93
2021/01/20 01:44:31;;;;;;;0.10;0.10;;;9.90;99.90;;;;;;6189293;23;20005;-92
2021/01/20 01:46:56;;;;;;;0.20;0.20;;;9.90;99.90;;;;;;6189017;23;20444;-91
2021/01/20 01:49:24;;;;;;;0.10;0.10;;;9.90;99.90;;;;;;6188939;23;20012;-92
2021/01/20 01:51:50;;;;;;;0.28;0.10;;;9.90;99.90;;;;;;6189774;23;20008;-92
2021/01/20 01:54:16;;;;;;;0.08;0.03;;;9.90;99.90;;;;;;6189501;23;20005;-93
2021/01/20 01:56:43;;;;;;;0.10;0.10;;;9.90;99.90;;;;;;6189297;23;20024;-93
2021/01/20 01:59:09;;;;;;;0.10;0.10;;;9.90;99.90;;;;;;6189502;23;20059;-92
2021/01/20 02:01:34;;;;;;;0.35;0.08;;;9.90;99.90;;;;;;6189483;23;20008;-92
2021/01/20 02:04:00;;;;;;;0.10;0.10;;;9.90;99.90;;;;;;6189387;23;20001;-93
2021/01/20 02:06:26;;;;;;;0.10;0.10;;;9.90;99.90;;;;;;6189334;23;20047;-91
2021/01/20 02:08:53;;;;;;;0.15;0.15;;;10.00;99.90;;;;;;6189078;23;20009;-92
2021/01/20 02:11:39;;;;;;;0.20;0.10;;;10.00;99.90;;;;;;6189546;23;20005;-92
2021/01/20 02:14:16;;;;;;;0.20;0.10;;;10.00;99.90;;;;;;6189282;23;20070;-93
2021/01/20 02:16:59;;;;;;;0.05;0.05;;;10.00;99.90;;;;;;6214258;23;20016;-93
2021/01/20 02:19:45;;;;;;;0.32;0.20;;;10.00;99.90;;;;;;6189030;23;20016;-93
2021/01/20 02:22:35;;;;;;;0.08;0.08;;;10.00;99.90;;;;;;6189396;23;20016;-92
2021/01/20 02:25:39;;;;;;;0.10;0.10;;;10.00;99.90;;;;;;6189585;23;20020;-92
2021/01/20 02:28:17;;;;;;;0.43;0.00;;;10.00;99.90;;;;;;6145608;23;20008;-93
2021/01/20 02:30:44;;;;;;;0.40;0.32;;;10.00;99.90;;;;;;6191099;23;20001;-92
2021/01/20 02:33:24;;;;;;;0.00;0.00;;;10.00;99.90;;;;;;6191214;23;20058;-92
2021/01/20 02:36:00;;;;;;;0.10;0.10;;;10.00;99.90;;;;;;6191379;23;20335;-92
2021/01/20 02:38:26;;;;;;;1.13;0.05;;;10.00;99.90;;;;;;6191333;23;20005;-91
2021/01/20 02:40:52;;;;;;;0.08;0.08;;;10.00;99.90;;;;;;6191395;23;20039;-93
2021/01/20 02:43:25;;;;;;;0.38;0.17;;;10.00;99.90;;;;;;6217420;23;20004;-93
2021/01/20 02:45:51;;;;;;;0.13;0.13;;;10.00;99.90;;;;;;6191191;23;20009;-92
2021/01/20 02:48:17;;;;;;;0.30;0.20;;;10.00;99.90;;;;;;6191129;23;20001;-92
2021/01/20 02:50:44;;;;;;;0.80;0.40;;;10.00;99.90;;;;;;6190894;23;20104;-92
2021/01/20 02:53:14;;;;;;;0.50;0.30;;;10.00;99.90;;;;;;6190607;23;20096;-92
2021/01/20 02:55:47;;;;;;;0.13;0.13;;;10.00;99.90;;;;;;6191134;23;20428;-92
2021/01/20 02:58:18;;;;;;;0.40;0.40;;;10.00;99.90;;;;;;6190996;23;20499;-92
2021/01/20 03:00:45;;;;;;;0.43;0.38;;;10.00;99.90;;;;;;6190893;23;20013;-92
2021/01/20 03:03:12;;;;;;;1.38;0.38;;;10.10;99.90;;;;;;6190545;23;20009;-91
2021/01/20 03:05:41;;;;;;;0.25;0.25;;;10.10;99.90;;;;;;6190889;23;20000;-92
2021/01/20 03:08:08;;;;;;;0.17;0.17;;;10.10;99.90;;;;;;6190854;23;20522;-92
2021/01/20 03:10:34;;;;;;;0.32;0.10;;;10.10;99.90;;;;;;6190871;23;20024;-93
2021/01/20 03:13:00;;;;;;;1.00;0.20;;;10.10;99.90;;;;;;6190664;23;20005;-90
2021/01/20 03:15:35;;;;;;;0.10;0.10;;;10.10;99.90;;;;;;6190680;23;20008;-91
2021/01/20 03:18:01;;;;;;;0.20;0.10;;;10.10;99.90;;;;;;6190643;23;19997;-93
2021/01/20 03:20:27;;;;;;;0.20;0.20;;;10.10;99.90;;;;;;6190425;23;20005;-92
2021/01/20 03:22:53;;;;;;;1.40;0.20;;;10.10;99.90;;;;;;6190493;23;20012;-91
2021/01/20 03:25:18;;;;;;;0.28;0.20;;;10.10;99.90;;;;;;6190536;23;20079;-93
2021/01/20 03:27:44;;;;;;;0.20;0.20;;;10.10;99.90;;;;;;6190131;23;20017;-92
2021/01/20 03:30:10;;;;;;;0.95;0.20;;;10.00;99.90;;;;;;6190154;23;20016;-92
2021/01/20 03:32:36;;;;;;;0.10;0.10;;;10.00;99.90;;;;;;6190793;23;20011;-92
2021/01/20 03:35:02;;;;;;;0.30;0.10;;;10.00;99.90;;;;;;6190556;23;20005;-91
2021/01/20 03:37:27;;;;;;;0.30;0.20;;;10.00;99.90;;;;;;6190340;23;20013;-92
2021/01/20 03:39:53;;;;;;;1.38;0.20;;;10.00;99.90;;;;;;6190286;23;20059;-91
2021/01/20 03:42:19;;;;;;;0.13;0.10;;;10.00;99.90;;;;;;6190420;23;20091;-92
2021/01/20 03:44:44;;;;;;;0.30;0.20;;;10.00;99.90;;;;;;6190428;23;20008;-91
2021/01/20 03:47:10;;;;;;;2.78;0.40;;;10.00;99.90;;;;;;6190605;23;20518;-91
2021/01/20 03:49:36;;;;;;;0.10;0.10;;;10.00;99.90;;;;;;6190651;23;20009;-92
2021/01/20 03:52:01;;;;;;;0.15;0.15;;;10.00;99.90;;;;;;6190689;23;20005;-91
2021/01/20 03:54:27;;;;;;;1.65;0.10;;;10.00;99.90;;;;;;6192789;23;20001;-92
2021/01/20 03:56:53;;;;;;;0.17;0.17;;;10.10;99.90;;;;;;6204366;23;20001;-92
2021/01/20 03:59:18;;;;;;;1.65;0.30;;;10.00;99.90;;;;;;6203853;23;20095;-92
2021/01/20 04:01:44;;;;;;;0.55;0.20;;;10.00;99.90;;;;;;6198106;23;20032;-91
2021/01/20 04:04:10;;;;;;;0.28;0.10;;;10.00;99.90;;;;;;6196560;23;20005;-91
2021/01/20 04:06:36;;;;;;;0.30;0.20;;;10.10;99.90;;;;;;6191986;23;20017;-91
2021/01/20 04:09:03;;;;;;;0.10;0.10;;;10.10;99.90;;;;;;6189881;23;20009;-92
2021/01/20 04:11:28;;;;;;;0.10;0.10;;;10.10;99.90;;;;;;6190259;23;19997;-92
2021/01/20 04:13:54;;;;;;;1.20;0.25;;;10.00;99.90;;;;;;6190098;23;20087;-92
2021/01/20 04:16:20;;;;;;;0.10;0.10;;;10.10;99.90;;;;;;6189988;23;19996;-92
2021/01/20 04:18:45;;;;;;;0.10;0.10;;;10.00;99.90;;;;;;6189796;23;20013;-93
2021/01/20 04:21:12;;;;;;;0.15;0.15;;;10.00;99.90;;;;;;6190210;23;20004;-92
2021/01/20 04:23:37;;;;;;;0.25;0.20;;;10.00;99.90;;;;;;6190384;23;20004;-93
2021/01/20 04:26:07;;;;;;;0.10;0.10;;;10.00;99.90;;;;;;6189901;23;20004;-91
2021/01/20 04:28:33;;;;;;;0.38;0.20;;;10.00;99.90;;;;;;6189799;23;20017;-92
2021/01/20 04:31:00;;;;;;;0.32;0.30;;;10.00;99.90;;;;;;6189873;23;20087;-91
2021/01/20 04:33:26;;;;;;;0.35;0.20;;;10.00;99.90;;;;;;6189756;23;20000;-92
2021/01/20 04:35:53;;;;;;;0.20;0.20;;;10.00;99.90;;;;;;6190138;23;20038;-92
2021/01/20 04:38:19;;;;;;;1.70;0.10;;;10.00;99.90;;;;;;6189909;23;20004;-93
2021/01/20 04:40:45;;;;;;;0.10;0.10;;;9.90;99.90;;;;;;6189811;23;20001;-92
2021/01/20 04:43:11;;;;;;;0.30;0.20;;;9.90;99.90;;;;;;6189338;23;20083;-92
2021/01/20 04:45:38;;;;;;;1.33;0.03;;;9.90;99.90;;;;;;6189415;23;20000;-92
2021/01/20 04:48:07;;;;;;;0.30;0.10;;;9.90;99.90;;;;;;6188777;23;20015;-91
2021/01/20 04:50:36;;;;;;;0.10;0.10;;;9.90;99.90;;;;;;6188678;23;20000;-91
2021/01/20 04:53:09;;;;;;;1.63;0.10;;;9.90;99.90;;;;;;6188505;23;20005;-93
2021/01/20 04:55:38;;;;;;;0.10;0.10;;;9.90;99.90;;;;;;6188432;23;20005;-92
2021/01/20 04:58:04;;;;;;;0.10;0.10;;;9.90;99.90;;;;;;6188351;23;20337;-91
2021/01/20 05:00:30;;;;;;;1.08;0.20;;;9.90;99.90;;;;;;6189079;23;20008;-92
2021/01/20 05:02:58;;;;;;;0.30;0.10;;;9.90;99.90;;;;;;6188753;23;20321;-92
2021/01/20 05:05:25;;;;;;;1.35;0.10;;;9.90;99.90;;;;;;6187311;23;20008;-92
2021/01/20 05:07:51;;;;;;;0.10;0.10;;;9.90;99.90;;;;;;6187853;23;20024;-91
2021/01/20 05:10:17;;;;;;;0.15;0.10;;;9.90;99.90;;;;;;6187902;23;20083;-92
2021/01/20 05:12:44;;;;;;;0.22;0.10;;;9.80;99.90;;;;;;6187361;23;20005;-92
2021/01/20 05:15:15;;;;;;;0.10;0.10;;;9.80;99.90;;;;;;6187807;23;20004;-92
2021/01/20 05:17:57;;;;;;;0.03;0.03;;;9.90;99.90;;;;;;6187296;23;20028;-93
2021/01/20 05:20:34;;;;;;;1.63;0.10;;;9.90;99.90;;;;;;6211765;23;20017;-91
2021/01/20 05:23:05;;;;;;;0.10;0.10;;;9.90;99.90;;;;;;6186617;23;20107;-92
2021/01/20 05:25:38;;;;;;;0.43;0.43;;;9.90;99.90;;;;;;6186270;23;20016;-92
2021/01/20 05:28:23;;;;;;;0.10;0.10;;;9.90;99.90;;;;;;6186751;23;20020;-94
2021/01/20 05:30:59;;;;;;;0.10;0.03;;;10.00;99.90;;;;;;6212558;23;20040;-91
2021/01/20 05:33:39;;;;;;;0.60;0.10;;;10.00;99.90;;;;;;6187803;23;20009;-91
2021/01/20 05:36:09;;;;;;;0.20;0.10;;;10.00;99.90;;;;;;6187993;23;20055;-92
2021/01/20 05:38:49;;;;;;;0.10;0.10;;;10.00;99.90;;;;;;6187623;23;20005;-93
2021/01/20 05:41:17;;;;;;;0.00;0.00;;;10.10;99.90;;;;;;6187523;23;20035;-93
2021/01/20 05:43:42;;;;;;;0.43;0.20;;;10.10;99.90;;;;;;6187673;23;20055;-91
2021/01/20 05:46:09;;;;;;;0.52;0.20;;;10.10;99.90;;;;;;6187400;23;20009;-93
2021/01/20 05:48:56;;;;;;;0.13;0.08;;;10.10;99.90;;;;;;6187957;23;20020;-92
2021/01/20 05:51:21;;;;;;;0.20;0.20;;;10.10;99.90;;;;;;6188642;23;20004;-91
2021/01/20 05:53:52;;;;;;;0.35;0.10;;;10.10;99.90;;;;;;6188326;23;20058;-93
2021/01/20 05:56:28;;;;;;;0.20;0.20;;;10.10;99.90;;;;;;6188200;23;20063;-92
2021/01/20 05:58:54;;;;;;;0.10;0.10;;;10.10;99.90;;;;;;6189088;23;20005;-92
2021/01/20 06:01:20;;;;;;;1.20;0.13;;;10.10;99.90;;;;;;6190541;23;20039;-92
2021/01/20 06:03:47;;;;;;;0.10;0.10;;;10.10;99.90;;;;;;6191017;23;20028;-92
2021/01/20 06:06:14;;;;;;;0.20;0.20;;;10.10;99.90;;;;;;6190934;23;20044;-92
2021/01/20 06:08:40;;;;;;;0.10;0.10;;;10.10;99.90;;;;;;6191648;23;20009;-91
2021/01/20 06:11:07;;;;;;;0.57;0.10;;;10.10;99.90;;;;;;6190650;23;20491;-92
2021/01/20 06:13:34;;;;;;;0.20;0.10;;;10.10;99.90;;;;;;6190596;23;20423;-93
2021/01/20 06:16:19;;;;;;;0.20;0.20;;;10.10;99.90;;;;;;6190788;23;20005;-92
2021/01/20 06:18:49;;;;;;;0.95;0.20;;;10.10;99.90;;;;;;6190567;23;20005;-92
2021/01/20 06:21:16;;;;;;;0.93;0.20;;;10.10;99.90;;;;;;6190623;23;20031;-93
2021/01/20 06:24:07;;;;;;;0.10;0.10;;;10.10;99.90;;;;;;6190341;23;20071;-93
2021/01/20 06:26:36;;;;;;;0.10;0.10;;;10.10;99.90;;;;;;6190417;23;20024;-92
2021/01/20 06:29:07;;;;;;;0.03;0.00;;;10.10;99.90;;;;;;6190090;23;20044;-92
2021/01/20 06:31:40;;;;;;;0.35;0.22;;;10.10;99.90;;;;;;6190151;23;20001;-92
2021/01/20 06:34:06;;;;;;;0.10;0.10;;;10.20;99.90;;;;;;6190835;23;20012;-94
2021/01/20 06:36:32;;;;;;;0.05;0.05;;;10.20;99.90;;;;;;6191262;23;20470;-94
2021/01/20 06:38:59;;;;;;;0.25;0.20;;;10.20;99.90;;;;;;6190592;23;20001;-94
2021/01/20 06:41:40;;;;;;;0.25;0.10;;;10.20;99.90;;;;;;6190865;23;20008;-91
2021/01/20 06:44:14;;;;;;;0.10;0.10;;;10.20;99.90;;;;;;6190790;23;20066;-93
2021/01/20 06:46:59;;;;;;;0.52;0.17;;;10.20;99.90;;;;;;6190274;23;20016;-93
2021/01/20 06:49:33;;;;;;;0.10;0.10;;;10.20;99.90;;;;;;6190280;23;20009;-93
2021/01/20 06:52:13;;;;;;;0.85;0.13;;;10.20;99.90;;;;;;6190311;23;20005;-92
2021/01/20 06:54:41;;;;;;;0.10;0.10;;;10.20;99.90;;;;;;6190413;23;20005;-93
2021/01/20 06:57:25;;;;;;;0.10;0.10;;;10.20;99.90;;;;;;6191138;23;20240;-93
2021/01/20 07:00:11;;;;;;;0.17;0.10;;;10.20;99.90;;;;;;6215992;23;20010;-92
2021/01/20 07:03:06;;;;;;;0.50;0.30;;;10.10;99.90;;;;;;6190000;23;20024;-92
2021/01/20 07:05:37;;;;;;;0.17;0.17;;;10.10;99.90;;;;;;6191300;23;20425;-92
2021/01/20 07:08:07;;;;;;;0.20;0.20;;;10.10;99.90;;;;;;6190980;23;20012;-93
2021/01/20 07:11:15;;;;;;;0.17;0.17;;;10.10;99.90;;;;;;6191216;23;20027;-93
2021/01/20 07:13:43;;;;;;;0.65;0.13;;;10.10;99.90;;;;;;6101344;23;20445;-93
2021/01/20 07:16:10;;;;;;;0.10;0.10;;;10.10;99.90;;;;;;6085526;23;20018;-92
2021/01/20 07:18:41;;;;;;;0.15;0.10;;;10.10;99.90;;;;;;6084692;23;20296;-94
2021/01/20 07:21:07;;;;;;;0.85;0.85;;;10.10;99.90;;;;;;6079578;23;20477;-93
2021/01/20 07:23:33;;;;;;;0.10;0.10;;;10.10;99.90;;;;;;6101560;23;20021;-92
2021/01/20 07:26:02;;;;;;;0.43;0.20;;;10.10;99.90;;;;;;6072563;23;20010;-94
2021/01/20 07:28:29;;;;;;;0.38;0.30;;;10.10;99.90;;;;;;6072213;23;20101;-94
2021/01/20 07:31:07;;;;;;;0.20;0.20;;;10.10;99.90;;;;;;6095646;23;20093;-93
2021/01/20 07:33:33;;;;;;;0.22;0.22;;;10.20;99.90;;;;;;6072185;23;20041;-93
2021/01/20 07:36:09;;;;;;;0.43;0.20;;;10.20;99.90;;;;;;6070878;23;20003;-93
2021/01/20 07:38:34;;;;;;;0.45;0.32;;;10.20;99.90;;;;;;6069834;23;20009;-93
2021/01/20 07:41:13;;;;;;;0.22;0.22;;;10.20;99.90;;;;;;6095226;23;20513;-92
2021/01/20 07:43:38;;;;;;;0.30;0.30;;;10.10;99.90;;;;;;6095533;23;20343;-91
2021/01/20 07:46:22;;;;;;;1.00;0.20;;;10.20;99.90;;;;;;6188879;23;20034;-92
2021/01/20 07:48:49;;;;;;;0.22;0.10;;;10.10;99.90;;;;;;6188620;23;20005;-92
2021/01/20 07:51:17;;;;;;;0.93;0.22;;;10.10;99.90;;;;;;6188064;23;20025;-93
2021/01/20 07:54:01;;;;;;;1.45;0.20;;;10.20;99.90;;;;;;6189031;23;20009;-94
2021/01/20 07:56:28;;;;;;;0.22;0.20;;;10.20;99.90;;;;;;6189465;23;20004;-93
2021/01/20 07:58:54;;;;;;;0.10;0.10;;;10.20;99.90;;;;;;6189960;23;20488;-93
2021/01/20 08:01:28;;;;;;;0.30;0.30;;;10.10;99.90;;;;;;6190112;23;20036;-94
2021/01/20 08:03:55;;;;;;;0.50;0.30;;;10.10;99.90;;;;;;6190943;23;20331;-92
2021/01/20 08:06:21;;;;;;;0.45;0.13;;;10.10;99.90;;;;;;6190545;23;20012;-93
2021/01/20 08:08:55;;;;;;;0.10;0.10;;;10.20;99.90;;;;;;6190323;23;20035;-93
2021/01/20 08:11:24;;;;;;;0.65;0.35;;;10.20;99.90;;;;;;6189902;23;20001;-94
2021/01/20 08:13:50;;;;;;;0.73;0.30;;;10.20;99.90;;;;;;6189120;23;20031;-92
2021/01/20 08:16:17;;;;;;;0.17;0.13;;;10.20;99.90;;;;;;6188860;23;20083;-93
2021/01/20 08:18:45;;;;;;;0.40;0.30;;;10.20;99.90;;;;;;6188639;23;20111;-91
2021/01/20 08:21:11;;;;;;;1.80;1.13;;;10.10;99.90;;;;;;6188404;23;20005;-93
2021/01/20 08:23:50;;;;;;;0.30;0.30;;;10.10;99.90;;;;;;6189828;23;20004;-94
2021/01/20 08:26:21;;;;;;;0.20;0.20;;;10.10;99.90;;;;;;6189839;23;20008;-92
2021/01/20 08:29:05;;;;;;;0.10;0.10;;;10.10;99.90;;;;;;6190181;23;20044;-93
2021/01/20 08:31:31;;;;;;;1.40;0.10;;;10.10;99.90;;;;;;6214837;23;20008;-93
2021/01/20 08:34:17;;;;;;;0.30;0.20;;;10.10;99.90;;;;;;6189589;23;20009;-93
2021/01/20 08:37:01;;;;;;;0.52;0.30;;;10.10;99.90;;;;;;6189349;23;20008;-92
2021/01/20 08:39:27;;;;;;;0.30;0.17;;;10.10;99.90;;;;;;6193107;23;20004;-92
2021/01/20 08:42:17;;;;;;;0.20;0.20;;;10.10;99.90;;;;;;6192018;23;20005;-94
2021/01/20 08:45:03;;;;;;;3.33;0.30;;;10.10;99.90;;;;;;6189151;23;20071;-92
2021/01/20 08:47:28;;;;;;;0.22;0.13;;;10.10;99.90;;;;;;6188829;23;20017;-94
2021/01/20 08:49:54;;;;;;;0.30;0.10;;;10.10;99.90;;;;;;6189024;23;20518;-95
2021/01/20 08:52:21;;;;;;;0.30;0.30;;;10.10;99.90;;;;;;6189164;23;20004;-94
2021/01/20 08:54:51;;;;;;;0.20;0.20;;;10.10;99.90;;;;;;6188746;23;20001;-93
2021/01/20 08:57:21;;;;;;;0.10;0.10;;;10.10;99.90;;;;;;6190033;23;20019;-94
2021/01/20 08:59:54;;;;;;;0.55;0.55;;;10.10;99.90;;;;;;6188787;23;20031;-93
2021/01/20 09:02:20;;;;;;;0.20;0.20;;;10.20;99.90;;;;;;6188891;23;20059;-94
2021/01/20 09:04:48;;;;;;;0.20;0.20;;;10.20;99.90;;;;;;6189217;23;20004;-96
2021/01/20 09:07:29;;;;;;;0.68;0.25;;;10.10;99.90;;;;;;6191157;23;20575;-95
2021/01/20 09:12:43;;;;;;;0.30;0.17;;;10.20;99.90;;;;;;6173839;23;20058;-94
2021/01/20 09:15:17;;;;;;;1.45;1.20;;;10.20;99.90;;;;;;6126678;23;20013;-93
2021/01/20 09:17:43;;;;;;;2.47;0.30;;;10.20;99.90;;;;;;6160676;23;20013;-94
2021/01/20 09:20:09;;;;;;;2.88;0.50;;;10.20;99.90;;;;;;6160323;23;20052;-94
2021/01/20 09:22:39;;;;;;;0.65;0.32;;;10.20;99.90;;;;;;6159913;23;20020;-92
2021/01/20 09:25:08;;;;;;;0.45;0.45;;;10.20;99.90;;;;;;6142665;23;20092;-92
2021/01/20 09:27:34;;;;;;;0.20;0.20;;;10.10;99.90;;;;;;6151542;23;20017;-93
2021/01/20 09:30:00;;;;;;;0.20;0.20;;;10.20;99.90;;;;;;6158644;23;20009;-93
2021/01/20 09:32:25;;;;;;;2.05;0.30;;;10.20;99.90;;;;;;6159442;23;20337;-93
2021/01/20 09:34:51;;;;;;;0.20;0.20;;;10.10;99.90;;;;;;6161957;23;20527;-94
2021/01/20 09:37:17;;;;;;;0.38;0.22;;;10.20;99.90;;;;;;6162091;23;20092;-94
2021/01/20 09:39:42;;;;;;;4.32;0.30;;;10.20;99.90;;;;;;6161336;23;20004;-93
2021/01/20 09:42:08;;;;;;;0.30;0.30;;;10.20;99.90;;;;;;6161734;23;20005;-93
2021/01/20 09:44:34;;;;;;;0.43;0.43;;;10.20;99.90;;;;;;6161889;23;20012;-94
2021/01/20 09:47:01;;;;;;;0.57;0.50;;;10.20;99.90;;;;;;6161907;23;20043;-93
2021/01/20 09:49:27;;;;;;;0.20;0.20;;;10.20;99.90;;;;;;6160842;23;20048;-92
2021/01/20 09:51:53;;;;;;;1.35;0.50;;;10.20;99.90;;;;;;6160652;23;20016;-93
2021/01/20 09:54:19;;;;;;;1.00;0.30;;;10.20;99.90;;;;;;6160478;23;19997;-94
2021/01/20 09:56:44;;;;;;;0.30;0.20;;;10.30;99.90;;;;;;6161404;23;20005;-94
2021/01/20 09:59:10;;;;;;;1.02;0.30;;;10.20;99.90;;;;;;6159798;23;20045;-95
2021/01/20 10:04:11;;;;;;;5.68;2.17;;;10.30;99.90;;;;;;6157719;23;20160;-92
2021/01/20 10:06:37;;;;;;;3.75;2.20;;;10.30;99.90;;;;;;6131809;23;20417;-93
2021/01/20 10:09:03;;;;;;;7.35;3.97;;;10.20;99.90;;;;;;6133300;23;20093;-93
2021/01/20 10:11:29;;;;;;;2.90;1.05;;;10.30;99.90;;;;;;6131564;23;20045;-93
2021/01/20 10:13:54;;;;;;;2.50;1.30;;;10.30;99.90;;;;;;6131726;23;20044;-90
2021/01/20 10:16:21;;;;;;;0.32;0.32;;;10.30;99.90;;;;;;6131762;23;20024;-94
2021/01/20 10:18:49;;;;;;;0.93;0.60;;;10.30;99.90;;;;;;6133844;23;20488;-95
2021/01/20 10:21:15;;;;;;;1.20;0.90;;;10.30;99.90;;;;;;6132083;23;20006;-93
2021/01/20 10:23:40;;;;;;;1.20;0.60;;;10.40;99.90;;;;;;6131306;23;20013;-95
2021/01/20 10:26:06;;;;;;;0.80;0.50;;;10.30;99.90;;;;;;6131749;23;20014;-93
2021/01/20 10:28:31;;;;;;;0.95;0.43;;;10.30;99.90;;;;;;6132324;23;20016;-93
2021/01/20 10:30:57;;;;;;;1.85;1.13;;;10.30;99.90;;;;;;6133821;23;20061;-93
2021/01/20 10:33:23;;;;;;;1.52;0.75;;;10.30;99.90;;;;;;6140852;23;20028;-94
2021/01/20 10:35:48;;;;;;;2.10;0.80;;;10.30;99.90;;;;;;6140324;23;20006;-95
2021/01/20 10:38:14;;;;;;;2.67;0.60;;;10.30;99.90;;;;;;6139096;23;20005;-95
2021/01/20 10:40:40;;;;;;;3.85;2.22;;;10.30;99.90;;;;;;6135412;23;20065;-94
2021/01/20 10:43:05;;;;;;;2.70;1.30;;;10.40;99.90;;;;;;6133613;23;20013;-94
2021/01/20 10:45:31;;;;;;;0.65;0.52;;;10.40;99.90;;;;;;6132024;23;20437;-93
2021/01/20 10:47:57;;;;;;;1.17;0.80;;;10.40;99.90;;;;;;6132279;23;20010;-95
2021/01/20 10:50:23;;;;;;;1.20;1.10;;;10.40;99.90;;;;;;6131972;23;20005;-95
2021/01/20 10:52:48;;;;;;;1.02;0.90;;;10.40;99.90;;;;;;6132475;23;20017;-93
2021/01/20 10:55:14;;;;;;;1.98;1.20;;;10.40;99.90;;;;;;6132171;23;20005;-95
2021/01/20 10:57:40;;;;;;;1.15;1.02;;;10.40;99.90;;;;;;6123475;23;20092;-94
2021/01/20 11:00:06;;;;;;;2.15;1.60;;;10.40;99.90;;;;;;6131292;23;20421;-94
2021/01/20 11:02:32;;;;;;;0.68;0.57;;;10.50;99.90;;;;;;6132285;23;20417;-95
2021/01/20 11:04:57;;;;;;;1.60;1.02;;;10.40;99.90;;;;;;6131687;23;20005;-93
2021/01/20 11:07:23;;;;;;;2.00;0.85;;;10.40;99.90;;;;;;6131171;23;20013;-94
2021/01/20 11:09:51;;;;;;;1.70;1.10;;;10.40;99.90;;;;;;6131488;23;20444;-94
2021/01/20 11:12:17;;;;;;;0.77;0.65;;;10.40;99.90;;;;;;6131527;23;20045;-94
2021/01/20 11:14:43;;;;;;;2.17;0.75;;;10.40;99.90;;;;;;6131512;23;20008;-94
2021/01/20 11:17:14;;;;;;;0.50;0.50;;;10.40;99.90;;;;;;6131768;23;20091;-94
2021/01/20 11:19:39;;;;;;;;;;;10.30;99.90;;;;;;6132633;23;20093;-94
2021/01/20 11:22:07;;;;;;;1.75;0.70;;;10.30;99.90;;;;;;6131044;23;19901;-96
2021/01/20 11:24:35;;;;;;;2.85;1.20;;;10.30;99.90;;;;;;6131241;23;20088;-96
2021/01/20 11:27:21;;;;;;;2.13;1.40;;;10.30;99.90;;;;;;6130608;23;20024;-95
2021/01/20 11:29:49;;;;;;;14.35;6.68;;;10.30;99.90;;;;;;6131005;23;20133;-95
2021/01/20 11:32:15;;;;;;;5.57;3.10;;;10.30;99.90;;;;;;6131023;23;20020;-96
2021/01/20 11:34:41;;;;;;;22.35;10.18;;;10.20;99.90;;;;;;6131855;23;20433;-95
2021/01/20 11:37:07;;;;;;;9.57;5.07;;;10.30;99.90;;;;;;6131501;23;20009;-96
2021/01/20 11:39:36;;;;;;;2.70;1.35;;;10.30;99.90;;;;;;6131539;23;20010;-94
2021/01/20 11:42:02;;;;;;;2.97;1.75;;;10.30;99.90;;;;;;6131345;23;20017;-94
2021/01/20 11:44:35;;;;;;;5.15;3.30;;;10.30;99.90;;;;;;6130773;23;20006;-95
2021/01/20 11:47:01;;;;;;;5.10;3.28;;;10.40;99.90;;;;;;6130230;23;20005;-93
2021/01/20 11:49:27;;;;;;;2.13;1.45;;;10.40;99.90;;;;;;6131177;23;20009;-93
2021/01/20 11:51:52;;;;;;;6.28;3.90;;;10.40;99.90;;;;;;6131670;23;20064;-94
2021/01/20 11:54:18;;;;;;;2.42;1.27;;;10.50;99.90;;;;;;6131100;23;20037;-93
2021/01/20 11:56:46;;;;;;;3.30;2.40;;;10.50;99.90;;;;;;6130409;23;20013;-94
2021/01/20 11:59:12;;;;;;;1.80;1.30;;;10.60;99.90;;;;;;6130761;23;20010;-95
2021/01/20 12:01:41;;;;;;;5.15;3.38;;;10.60;99.90;;;;;;6131260;23;20017;-93
2021/01/20 12:04:07;;;;;;;1.55;0.85;;;10.60;99.90;;;;;;6134117;23;20020;-95
2021/01/20 12:06:33;;;;;;;2.25;0.77;;;10.60;99.90;;;;;;6132919;23;20021;-95
2021/01/20 12:08:59;;;;;;;3.60;2.25;;;10.60;99.90;;;;;;6133442;23;20085;-94
2021/01/20 12:11:27;;;;;;;5.90;2.97;;;10.60;99.90;;;;;;6133114;23;20013;-94
2021/01/20 12:13:53;;;;;;;1.73;1.38;;;10.50;99.90;;;;;;6131727;23;20016;-94
2021/01/20 12:16:18;;;;;;;2.50;1.00;;;10.60;99.90;;;;;;6130868;23;20009;-95
2021/01/20 12:18:44;;;;;;;1.58;1.25;;;10.50;99.90;;;;;;6131545;23;20013;-94
2021/01/20 12:21:10;;;;;;;2.95;1.60;;;10.50;99.90;;;;;;6133051;23;20009;-95
2021/01/20 12:23:36;;;;;;;1.50;1.35;;;10.50;99.90;;;;;;6130869;23;20009;-96
2021/01/20 12:26:04;;;;;;;2.30;0.90;;;10.50;99.90;;;;;;6130984;23;20017;-96
2021/01/20 12:28:29;;;;;;;1.13;0.98;;;10.50;99.90;;;;;;6132129;23;20013;-95
2021/01/20 12:30:55;;;;;;;1.45;0.75;;;10.50;99.90;;;;;;6132272;23;20016;-95
2021/01/20 12:33:23;;;;;;;1.55;1.45;;;10.40;99.90;;;;;;6131845;23;20009;-95
2021/01/20 12:35:48;;;;;;;2.53;1.20;;;10.40;99.90;;;;;;6130161;23;20012;-94
2021/01/20 12:38:14;;;;;;;1.60;0.82;;;10.30;99.90;;;;;;6129754;23;20045;-94
2021/01/20 12:40:40;;;;;;;1.63;1.15;;;10.40;99.90;;;;;;6130849;23;20013;-91
2021/01/20 12:43:05;;;;;;;1.02;0.80;;;10.30;99.90;;;;;;6130975;23;20006;-94
2021/01/20 12:45:35;;;;;;;4.15;1.40;;;10.30;99.90;;;;;;6131910;23;20005;-92
2021/01/20 12:48:03;;;;;;;4.00;1.60;;;10.30;99.90;;;;;;6131676;23;20108;-93
2021/01/20 12:50:29;;;;;;;1.92;1.17;;;10.30;99.90;;;;;;6132940;23;20028;-95
2021/01/20 12:52:55;;;;;;;4.60;2.08;;;10.30;99.90;;;;;;6137517;23;20108;-94
2021/01/20 12:55:23;;;;;;;4.28;1.50;;;10.30;99.90;;;;;;6134903;23;20008;-93
2021/01/20 12:57:49;;;;;;;3.67;2.13;;;10.30;99.90;;;;;;6139544;23;20025;-89
2021/01/20 13:00:15;;;;;;;2.95;2.03;;;10.30;99.90;;;;;;6149610;23;20006;-91
2021/01/20 13:02:40;;;;;;;5.40;2.60;;;10.20;99.90;;;;;;6171229;23;20017;-91